Eureka, Arkansas
Current Conditions -  °F | °C
As of 10:57 PM on Sunday 19 Oct 2014 (Local Time) from KROG Reporting Station
Clear Clear  
Wind Chill: 55°   Ceiling: Unl
Heat Index: 55°   Visibility: 10mi
Dew Point: 49°   Wind: 3mph
Humidity: 80%   Direction: 140°SE
Pressure: 30.1"   Gusts: NA
Location:  36.4036°N, 93.7443°W
Report Text: KROG 200357Z 14003KT 10SM CLR 13/09 A3010 RMK AO2 SLP189 T01280094
Loading
Personal Weather Stations






























Interactive Weather Map
Tropical Storm Tracking
New forecast layout! Learn more

10-Day Weather Forecast

Advertisements
Track Severe Weather on mobile